Allen Army Airfield
PABI : rendu visible

Aérodrome :











RETROUVEZ-NOUS SUR...

 
LOGIN :

S'inscrire | Disclaimer

   EN    FR    IT 

 









Légende :    VFR   VFR Marginal   IFR   IFR Intensif   IFR Très Intensif
Visi : 
Plafond : 
>= 8 km
>= 3000ft
5 à 8 km
1000 à 3000 ft
1500m à 5 km
500 à 1000 ft
800 à 1500m
200 à 500 ft
< 800m
< 200 ft
Symboles :   Orages  Brouillard  Fortes neiges  Fortes précipitations  Vent > 20 kt






- Altitude de l'aérodrome : 1291 ft
- Code IATA : BIG


PABI - Allen Army

DERNIER METAR :
  • 291620Z 00000KT 3SM -SN OVC032 M28/M31 A2898 RMK AO2 P0000 T12781311

METARs EXPIRÉS :
  • 291610Z 00000KT 2 1/2SM -SN OVC030 M28/M31 A2898 RMK AO2 P0000 T12781311
  • 291553Z 00000KT 2 1/2SM -SN OVC028 M28/M31 A2899 RMK AO2 SNB14 SLP892 P0000 T12831311
  • 291533Z 00000KT 2 1/2SM -SN SCT120 M28/M31 A2901 RMK AO2 SNB14 P0000 T12831311
  • 291453Z AUTO 24004KT 10SM CLR M29/M32 A2903 RMK AO2 SLP905 T12891317 56038 TSNO
  • 291353Z AUTO 00000KT 10SM FEW038 M29/M32 A2906 RMK AO2 SLP915 T12941322 TSNO

TAF AMD TAF PABI
Valide du 29 à 15h jusqu'au 30 à 20h UTC


291550Z 2915/3020 VRB06KT 6000 -SN FEW038 QNH2906INS
BECMG 2915/2916 VRB06KT 4000 -SN BKN040 620703 QNH2910INS
TEMPO 2916/2918 4400 -SN
BECMG 3003/3004 19010G15KT 9999 NSW FEW015 WS015/19030KT 540155 QNH2894INS TXM27/3011Z TNM34/3007Z FOR MIL USE ONLY



MET'MAP, la Météo Aéronautique d'un coup d'oeil ! - Copyright ORBIFLY Décembre 2007 - Disclaimer

ORBIFLY MET'MAP TEAM :

Programmation & Développement : Alexandra Zaïnal
Sur une idée originale de : Baudouin d'Aumeries
Assistance à la programmation : Marc-Olivier Méhu
Soutien technique & logistique : Manuel Goepfert

Contact : metmap@orbifly.com




SOURCES & CREDITS :

   NOAA       Earth
Advisory